• Join FlightAware (Why Join?)
  • Login
  • US Flag 
12:25PM EDT


 

Airport Tracker/Info


-or-


 

Live Flight TrackerFlight Track Log ✈ N118BJ ✈ 16-Jun-2013 ✈ 8A3 - KAWM

Flight Track Log - Related Links

Times and Time Zones

All times are in EDT time to prevent confusion due to time zone crossing. See the N118BJ flight status page for this flight to view local times or setup timezone preferences in your user account.

Time Position Orientation Groundspeed Altitude Reporting Facility
EDT Latitude Longitude Course Direction KTS MPH feet Rate Location/Type
06:12PM 36.3650 -85.4919 245° Southwest 72 83 6,100  Level Indianapolis Center
06:13PM 36.3561 -85.5139 243° Southwest 72 83 6,500 420 Climbing Indianapolis Center
06:14PM 36.3472 -85.5353 243° Southwest 71 82 7,000 420 Climbing Indianapolis Center
06:15PM 36.3392 -85.5578 246° West 72 83 7,400 420 Climbing Indianapolis Center
06:16PM 36.3622 -85.4655 251° West  Level FlightAware Approximate
06:16PM 36.3289 -85.5850 245° Southwest 73 84 7,900  Level Indianapolis Center
06:17PM 36.3231 -85.6144 256° West 84 97 8,100  Climbing Indianapolis Center
06:18PM 36.3097 -85.6483 244° Southwest 103 119 8,000 -60 Descending Indianapolis Center
06:19PM 36.3003 -85.6828 251° West 107 123 8,000  Level Indianapolis Center
06:20PM 36.2950 -85.7194 260° West 107 123 8,000  Level Indianapolis Center
06:21PM 36.2833 -85.7833 257° West 105 121 8,000  Level Nashville TRACON
06:22PM 36.2808 -85.7872 231° Southwest 106 122 8,100 60 Climbing Memphis Center
06:23PM 36.2739 -85.8314 259° West 106 122 8,100  Level Memphis Center
06:24PM 36.2692 -85.8703 261° West 112 129 8,100  Level Memphis Center
06:25PM 36.2639 -85.8989 257° West 112 129 8,100 -60 Level Memphis Center
06:26PM 36.2611 -85.9375 265° West 107 123 8,000 -60 Descending Memphis Center
06:27PM 36.2542 -85.9742 257° West 107 123 8,000  Level Memphis Center
06:28PM 36.2428 -86.0081 247° West 107 123 8,100  Climbing Memphis Center
06:29PM 36.2336 -86.0419 251° West 107 123 8,000  Descending Memphis Center
06:30PM 36.2225 -86.0811 251° West 112 129 8,100  Climbing Memphis Center
06:31PM 36.2133 -86.1203 254° West 112 129 8,100  Level Memphis Center
06:32PM 36.2042 -86.1594 254° West 112 129 8,100  Level Memphis Center
06:33PM 36.1950 -86.1958 253° West 112 129 8,100  Level Memphis Center
06:34PM 36.1833 -86.2500 255° West 117 135 8,100  Level Nashville TRACON
06:35PM 36.1667 -86.2833 238° Southwest 119 137 8,100  Level Nashville TRACON
06:36PM 36.1667 -86.3333 270° West 119 137 8,100  Level Nashville TRACON
06:37PM 36.1500 -86.3667 238° Southwest 118 136 8,100 -60 Level Nashville TRACON
06:38PM 36.1500 -86.4000 270° West 118 136 8,000  Descending Nashville TRACON
06:39PM 36.1333 -86.4333 238° Southwest 116 133 8,100  Climbing Nashville TRACON
06:40PM 36.1333 -86.4833 270° West 116 133 8,100  Level Nashville TRACON
06:41PM 36.1167 -86.5167 238° Southwest 115 132 8,100  Level Nashville TRACON
06:42PM 36.1167 -86.5500 270° West 117 135 8,100  Level Nashville TRACON
06:43PM 36.1000 -86.5833 238° Southwest 116 133 8,100  Level Nashville TRACON
06:44PM 36.0833 -86.6333 248° West 116 133 8,100  Level Nashville TRACON
06:45PM 36.0833 -86.6667 270° West 116 133 8,100  Level Nashville TRACON
06:46PM 36.0667 -86.7167 248° West 114 131 8,100  Level Nashville TRACON
06:47PM 36.0667 -86.7500 270° West 112 129 8,100  Level Nashville TRACON
06:48PM 36.0500 -86.7833 238° Southwest 114 131 8,100  Level Nashville TRACON
06:49PM 36.0500 -86.8167 270° West 116 133 8,100  Level Nashville TRACON
06:50PM 36.0333 -86.8667 248° West 114 131 8,100  Level Nashville TRACON
06:51PM 36.0167 -86.9000 238° Southwest 113 130 8,100  Level Nashville TRACON
06:52PM 36.0167 -86.9333 270° West 113 130 8,100  Level Nashville TRACON
06:53PM 36.0000 -86.9667 238° Southwest 113 130 8,100  Level Nashville TRACON
06:54PM 36.0000 -87.0167 270° West 114 131 8,100  Level Nashville TRACON
06:55PM 35.9833 -87.0500 238° Southwest 114 131 8,100  Level Nashville TRACON
06:56PM 35.9833 -87.0833 270° West 115 132 8,100  Level Nashville TRACON
06:57PM 35.9667 -87.1167 238° Southwest 115 132 8,100  Level Nashville TRACON
06:59PM 35.9531 -87.1722 253° West 116 133 8,100  Level Memphis Center
07:00PM 35.9414 -87.2061 247° West 116 133 8,100 -60 Level Memphis Center
07:01PM 35.9317 -87.2422 252° West 116 133 8,000  Descending Memphis Center
07:02PM 35.9203 -87.2786 249° West 116 133 8,100  Climbing Memphis Center
07:03PM 35.9128 -87.3147 256° West 111 128 8,100  Level Memphis Center
07:04PM 35.9053 -87.3508 256° West 111 128 8,100  Level Memphis Center
07:05PM 35.8958 -87.3872 252° West 111 128 8,100  Level Memphis Center
07:06PM 35.8861 -87.4208 250° West 111 128 8,100  Level Memphis Center
07:07PM 35.8808 -87.4594 260° West 111 128 8,100  Level Memphis Center
07:08PM 35.8692 -87.4958 248° West 111 128 8,100  Level Memphis Center
07:09PM 35.8594 -87.5294 250° West 111 128 8,100  Level Memphis Center
07:10PM 35.8478 -87.5656 248° West 111 128 8,100 -60 Level Memphis Center
07:11PM 35.8403 -87.6042 257° West 111 128 8,000  Descending Memphis Center
07:12PM 35.8283 -87.6353 245° Southwest 111 128 8,100  Climbing Memphis Center
07:13PM 35.8189 -87.6714 252° West 111 128 8,100  Level Memphis Center
07:14PM 35.8111 -87.7050 254° West 111 128 8,100  Level Memphis Center
07:15PM 35.8014 -87.7386 250° West 111 128 8,100  Level Memphis Center
07:16PM 35.7939 -87.7772 257° West 116 133 8,100  Level Memphis Center
07:17PM 35.7842 -87.8133 252° West 111 128 8,100 -60 Level Memphis Center
07:18PM 35.7786 -87.8494 259° West 111 128 8,000 -60 Descending Memphis Center
07:19PM 35.7753 -87.8853 263° West 106 122 8,000  Level Memphis Center
07:20PM 35.7739 -87.9186 267° West 106 122 8,000  Level Memphis Center
07:21PM 35.7703 -87.9544 263° West 106 122 8,000  Level Memphis Center
07:22PM 35.7689 -87.9903 267° West 106 122 8,000  Level Memphis Center
07:23PM 35.7550 -88.0242 243° Southwest 106 122 8,000  Level Memphis Center
07:24PM 35.7389 -88.0553 237° Southwest 106 122 8,000  Level Memphis Center
07:25PM 35.7269 -88.0914 248° West 114 131 8,000  Level Memphis Center
07:26PM 35.7217 -88.1350 262° West 114 131 8,000  Level Memphis Center
07:27PM 35.7158 -88.1633 256° West 108 124 8,000  Level Memphis Center
07:28PM 35.7039 -88.2019 249° West 108 124 8,000  Level Memphis Center
07:29PM 35.6964 -88.2378 256° West 108 124 8,000  Level Memphis Center
07:30PM 35.6844 -88.2739 248° West 108 124 8,000 -60 Level Memphis Center
07:31PM 35.6767 -88.3047 253° West 108 124 7,900  Descending Memphis Center
07:32PM 35.6647 -88.3408 248° West 108 124 8,000  Climbing Memphis Center
07:33PM 35.6547 -88.3769 251° West 113 130 8,000 -60 Level Memphis Center
07:34PM 35.6428 -88.4156 249° West 113 130 7,900  Descending Memphis Center
07:35PM 35.6331 -88.4514 252° West 113 130 8,000  Climbing Memphis Center
07:36PM 35.6231 -88.4875 251° West 113 130 8,000  Level Memphis Center
07:37PM 35.6153 -88.5233 255° West 113 130 8,000  Level Memphis Center
07:38PM 35.6053 -88.5569 250° West 113 130 8,000  Level Memphis Center
07:39PM 35.5933 -88.5928 248° West 113 130 8,000  Level Memphis Center
07:40PM 35.5856 -88.6261 254° West 113 130 8,000  Level Memphis Center
07:41PM 35.5756 -88.6622 251° West 113 130 8,000  Level Memphis Center
07:42PM 35.5656 -88.6956 250° West 113 130 8,000  Level Memphis Center
07:43PM 35.5556 -88.7314 251° West 113 130 8,000  Level Memphis Center
07:44PM 35.5478 -88.7647 254° West 108 124 8,000  Level Memphis Center
07:45PM 35.5397 -88.7956 252° West 113 130 8,000  Level Memphis Center
07:46PM 35.5339 -88.8289 258° West 113 130 8,000  Level Memphis Center
07:47PM 35.5239 -88.8647 251° West 113 130 8,000  Level Memphis Center
07:48PM 35.5119 -88.8981 246° West 113 130 8,000  Level Memphis Center
07:49PM 35.5039 -88.9339 255° West 113 130 8,000  Level Memphis Center
07:50PM 35.4939 -88.9622 247° West 108 124 8,000  Level Memphis Center
07:51PM 35.4839 -88.9981 251° West 108 124 8,000  Level Memphis Center
07:52PM 35.4736 -89.0339 251° West 108 124 8,000 -240 Level Memphis Center
07:53PM 35.4658 -89.0697 255° West 114 131 7,600 -420 Descending Memphis Center
07:54PM 35.4619 -89.1081 263° West 119 137 7,200 -480 Descending Memphis Center
07:55PM 35.4500 -89.1489 250° West 119 137 6,700 -480 Descending Memphis Center
07:56PM 35.4397 -89.1847 251° West 119 137 6,300 -420 Descending Memphis Center
07:57PM 35.4319 -89.2231 256° West 119 137 5,900 -240 Descending Memphis Center
07:58PM 35.4197 -89.2589 247° West 125 144 5,900  Level Memphis Center
07:59PM 35.4117 -89.2922 253° West 113 130 5,900 -60 Level Memphis Center
08:00PM 35.4036 -89.3281 255° West 108 124 5,800 -300 Descending Memphis Center
08:01PM 35.3914 -89.3636 247° West 108 124 5,300 -420 Descending Memphis Center
08:02PM 35.3769 -89.3944 240° Southwest 115 132 5,000 -420 Descending Memphis Center
08:03PM 35.3625 -89.4278 242° Southwest 115 132 4,500 -540 Descending Memphis Center
08:04PM 35.3503 -89.4636 247° West 115 132 4,000 -300 Descending Memphis Center
08:05PM 35.3381 -89.4967 246° West 115 132 4,000 -60 Level Memphis Center
08:06PM 35.3236 -89.5275 240° Southwest 109 125 3,900 -60 Descending Memphis Center
08:07PM 35.3114 -89.5658 249° West 114 131 3,900  Level Memphis Center
08:08PM 35.2928 -89.5914 228° Southwest 114 131 3,900  Level Memphis Center
08:09PM 35.2667 -89.6500 241° Southwest 110 127 4,000  Climbing KMEM
08:10PM 35.2500 -89.6667 219° Southwest 110 127 4,000  Level KMEM
08:11PM 35.2333 -89.7000 239° Southwest 116 133 4,000  Level KMEM
08:12PM 35.2333 -89.7333 270° West 119 137 4,000 -60 Level KMEM
08:13PM 35.2333 -89.7833 270° West 118 136 3,900 -240 Descending KMEM
08:14PM 35.2167 -89.8167 239° Southwest 125 144 3,600 -360 Descending KMEM
08:15PM 35.2167 -89.8667 270° West 125 144 3,300 -300 Descending KMEM
08:16PM 35.2000 -89.9000 239° Southwest 122 140 3,100 -180 Descending KMEM
08:17PM 35.2000 -89.9333 270° West 117 135 3,000 -120 Descending KMEM
08:18PM 35.2000 -89.9667 270° West 116 133 2,900 -120 Descending KMEM